Time;durP1;ratioP1;P1;durP2;ratioP2;P2;SDS_P1;SDS_P2;PMS_P1;PMS_P2;Temp;Humidity;BMP_temperature;BMP_pressure;BME280_temperature;BME280_humidity;BME280_pressure;Samples;Min_cycle;Max_cycle;Signal;HPM_P1;HPM_P2
2021/12/06 00:00:26;;;;;;;8.47;6.70;;;;;;;;;;5058449;28;20241;-79
2021/12/06 00:02:54;;;;;;;7.83;5.63;;;;;;;;;;5055729;28;20206;-79
2021/12/06 00:05:22;;;;;;;8.37;6.47;;;;;;;;;;5055291;28;20238;-77
2021/12/06 00:07:49;;;;;;;8.73;6.43;;;;;;;;;;5052387;28;20604;-77
2021/12/06 00:10:16;;;;;;;7.80;6.73;;;;;;;;;;5055043;28;20245;-79
2021/12/06 00:12:45;;;;;;;10.47;7.03;;;;;;;;;;5062080;28;20198;-78
2021/12/06 00:15:13;;;;;;;7.93;6.77;;;;;;;;;;5058464;28;20256;-78
2021/12/06 00:17:41;;;;;;;7.63;6.83;;;;;;;;;;5057175;28;20204;-79
2021/12/06 00:20:09;;;;;;;10.63;7.00;;;;;;;;;;5057428;28;20241;-79
2021/12/06 00:22:37;;;;;;;8.20;6.63;;;;;;;;;;5057554;28;20221;-79
2021/12/06 00:27:32;;;;;;;9.00;6.63;;;;;;;;;;5076117;28;20202;-77
2021/12/06 00:30:01;;;;;;;10.83;6.90;;;;;;;;;;5061015;28;20613;-76
2021/12/06 00:32:28;;;;;;;10.60;6.37;;;;;;;;;;5069019;28;20205;-77
2021/12/06 00:34:55;;;;;;;9.10;6.80;;;;;;;;;;5086484;28;20212;-77
2021/12/06 00:37:29;;;;;;;10.00;7.20;;;;;;;;;;5098201;28;20208;-78
2021/12/06 00:39:57;;;;;;;8.27;6.53;;;;;;;;;;5095777;28;20225;-78
2021/12/06 00:42:25;;;;;;;7.87;6.57;;;;;;;;;;5077467;28;20212;-76
2021/12/06 00:44:52;;;;;;;8.83;6.43;;;;;;;;;;5074367;28;20229;-77
2021/12/06 00:47:21;;;;;;;9.63;6.50;;;;;;;;;;5072884;28;20236;-76
2021/12/06 00:49:49;;;;;;;8.37;6.90;;;;;;;;;;5072017;28;20225;-76
2021/12/06 00:52:16;;;;;;;13.67;7.10;;;;;;;;;;5072070;28;20205;-77
2021/12/06 00:54:44;;;;;;;9.73;6.60;;;;;;;;;;5071648;28;20225;-76
2021/12/06 00:57:12;;;;;;;9.03;6.30;;;;;;;;;;5072276;28;20236;-77
2021/12/06 00:59:39;;;;;;;7.83;6.57;;;;;;;;;;5071890;28;20240;-76
2021/12/06 01:02:07;;;;;;;10.70;6.77;;;;;;;;;;5072193;28;20208;-76
2021/12/06 01:04:38;;;;;;;8.90;6.20;;;;;;;;;;5071404;28;20239;-77
2021/12/06 01:07:06;;;;;;;10.53;7.03;;;;;;;;;;5072128;28;20561;-77
2021/12/06 01:09:33;;;;;;;9.17;6.43;;;;;;;;;;5071602;28;20229;-77
2021/12/06 01:12:01;;;;;;;8.17;6.63;;;;;;;;;;5072132;28;20239;-77
2021/12/06 01:14:28;;;;;;;8.80;6.53;;;;;;;;;;5071508;28;20237;-76
2021/12/06 01:16:55;;;;;;;8.87;6.63;;;;;;;;;;5072070;28;20236;-76
2021/12/06 01:19:27;;;;;;;8.47;6.73;;;;;;;;;;5071686;28;20229;-77
2021/12/06 01:22:08;;;;;;;8.23;6.57;;;;;;;;;;5071502;28;20276;-77
2021/12/06 01:24:41;;;;;;;8.73;6.10;;;;;;;;;;5071309;28;20319;-76
2021/12/06 01:27:26;;;;;;;8.10;6.53;;;;;;;;;;5071479;28;20255;-76
2021/12/06 01:30:19;;;;;;;7.13;6.07;;;;;;;;;;5071617;28;20229;-76
2021/12/06 01:33:04;;;;;;;7.30;6.47;;;;;;;;;;5072173;28;20227;-77
2021/12/06 01:40:59;;;;;;;8.30;7.10;;;;;;;;;;5038110;28;20239;-79
2021/12/06 01:43:26;;;;;;;7.20;6.50;;;;;;;;;;5079924;28;20201;-80
2021/12/06 01:45:53;;;;;;;7.80;6.23;;;;;;;;;;5072250;28;20255;-79
2021/12/06 01:48:20;;;;;;;7.07;6.30;;;;;;;;;;5072486;28;20548;-78
2021/12/06 01:50:47;;;;;;;7.33;6.63;;;;;;;;;;5071858;28;20655;-79
2021/12/06 01:53:14;;;;;;;6.83;6.07;;;;;;;;;;5073158;28;20596;-79
2021/12/06 01:55:43;;;;;;;10.13;6.63;;;;;;;;;;5071816;28;20260;-79
2021/12/06 01:58:10;;;;;;;8.60;6.77;;;;;;;;;;5071060;28;20215;-78
2021/12/06 02:00:39;;;;;;;8.13;6.47;;;;;;;;;;5072807;28;20237;-79
2021/12/06 02:03:06;;;;;;;6.83;6.13;;;;;;;;;;5072736;28;20212;-80
2021/12/06 02:05:34;;;;;;;7.87;6.63;;;;;;;;;;5070458;28;20609;-79
2021/12/06 02:08:01;;;;;;;7.67;6.43;;;;;;;;;;5071444;28;20202;-80
2021/12/06 02:10:28;;;;;;;8.20;6.97;;;;;;;;;;5071379;28;20704;-79
2021/12/06 02:12:57;;;;;;;8.90;6.50;;;;;;;;;;5071998;28;20214;-80
2021/12/06 02:15:36;;;;;;;7.97;6.90;;;;;;;;;;5071241;28;20240;-78
2021/12/06 02:18:08;;;;;;;9.20;6.70;;;;;;;;;;5072037;28;20216;-79
2021/12/06 02:20:42;;;;;;;10.67;8.13;;;;;;;;;;5071314;28;20761;-79
2021/12/06 02:23:10;;;;;;;6.87;6.17;;;;;;;;;;5072291;28;20243;-79
2021/12/06 02:25:38;;;;;;;7.30;6.50;;;;;;;;;;5071169;28;20247;-78
2021/12/06 02:28:05;;;;;;;9.23;6.73;;;;;;;;;;5064421;28;20703;-79
2021/12/06 02:30:32;;;;;;;7.97;6.93;;;;;;;;;;5072509;28;20233;-79
2021/12/06 02:32:59;;;;;;;10.10;6.70;;;;;;;;;;5072382;28;20212;-79
2021/12/06 02:35:27;;;;;;;8.80;6.80;;;;;;;;;;5070895;28;20707;-79
2021/12/06 02:37:54;;;;;;;8.83;6.90;;;;;;;;;;5071912;28;20201;-78
2021/12/06 02:40:24;;;;;;;9.77;7.23;;;;;;;;;;5073255;28;20243;-79
2021/12/06 02:42:51;;;;;;;6.97;6.27;;;;;;;;;;5075072;28;20201;-79
2021/12/06 02:45:20;;;;;;;7.77;6.97;;;;;;;;;;5074597;28;20243;-79
2021/12/06 02:47:52;;;;;;;7.43;6.67;;;;;;;;;;5071297;28;20251;-79
2021/12/06 02:50:20;;;;;;;8.80;6.20;;;;;;;;;;5054920;28;20260;-79
2021/12/06 02:52:47;;;;;;;8.93;7.23;;;;;;;;;;5055961;28;20208;-79
2021/12/06 02:55:29;;;;;;;9.13;6.90;;;;;;;;;;5055696;28;20230;-79
2021/12/06 02:57:58;;;;;;;8.30;7.03;;;;;;;;;;5074259;28;20194;-79
2021/12/06 03:00:27;;;;;;;7.60;6.57;;;;;;;;;;5074678;28;20268;-78
2021/12/06 03:02:54;;;;;;;9.33;7.20;;;;;;;;;;5074988;28;20199;-79
2021/12/06 03:05:21;;;;;;;10.37;6.97;;;;;;;;;;5073951;28;20228;-79
2021/12/06 03:07:53;;;;;;;8.57;6.97;;;;;;;;;;5074514;28;20202;-78
2021/12/06 03:10:20;;;;;;;7.77;6.97;;;;;;;;;;5074017;28;20267;-79
2021/12/06 03:12:47;;;;;;;9.43;6.73;;;;;;;;;;5074855;28;20205;-79
2021/12/06 03:15:16;;;;;;;13.77;6.97;;;;;;;;;;5073993;28;20226;-79
2021/12/06 03:17:45;;;;;;;7.80;7.00;;;;;;;;;;5074582;28;20263;-78
2021/12/06 03:20:14;;;;;;;8.60;7.60;;;;;;;;;;5073856;28;20695;-79
2021/12/06 03:22:41;;;;;;;9.40;6.53;;;;;;;;;;5074349;28;20665;-79
2021/12/06 03:25:09;;;;;;;9.17;7.13;;;;;;;;;;5073638;28;20300;-79
2021/12/06 03:27:37;;;;;;;7.97;7.07;;;;;;;;;;5058810;28;20650;-79
2021/12/06 03:30:05;;;;;;;11.30;7.37;;;;;;;;;;5073576;28;20235;-78
2021/12/06 03:32:33;;;;;;;7.57;6.80;;;;;;;;;;5064648;28;20204;-79
2021/12/06 03:35:00;;;;;;;7.77;6.73;;;;;;;;;;5072962;28;20247;-78
2021/12/06 03:37:28;;;;;;;8.33;6.83;;;;;;;;;;5074161;28;20236;-78
2021/12/06 03:39:55;;;;;;;6.97;6.27;;;;;;;;;;5073478;28;20244;-79
2021/12/06 03:42:23;;;;;;;7.10;6.20;;;;;;;;;;5074195;28;20667;-79
2021/12/06 03:44:50;;;;;;;6.07;5.37;;;;;;;;;;5073424;28;20240;-79
2021/12/06 03:47:18;;;;;;;6.23;5.70;;;;;;;;;;5074224;28;20228;-78
2021/12/06 03:49:47;;;;;;;7.43;6.10;;;;;;;;;;5073767;28;20670;-79
2021/12/06 03:52:14;;;;;;;7.20;5.70;;;;;;;;;;5073769;28;20208;-79
2021/12/06 03:54:43;;;;;;;10.50;6.63;;;;;;;;;;5074116;28;20236;-79
2021/12/06 03:57:10;;;;;;;7.30;6.50;;;;;;;;;;5075191;28;20739;-80
2021/12/06 03:59:37;;;;;;;20.33;7.00;;;;;;;;;;5076352;28;20247;-79
2021/12/06 04:02:04;;;;;;;30.80;7.60;;;;;;;;;;5077097;28;20196;-79
2021/12/06 04:04:32;;;;;;;58.73;10.03;;;;;;;;;;5072919;28;20715;-78
2021/12/06 04:07:00;;;;;;;14.77;8.30;;;;;;;;;;5075259;28;20231;-79
2021/12/06 04:09:27;;;;;;;43.93;9.90;;;;;;;;;;5074081;28;20237;-79
2021/12/06 04:11:54;;;;;;;32.03;8.10;;;;;;;;;;5075141;28;20208;-78
2021/12/06 04:14:21;;;;;;;92.47;11.07;;;;;;;;;;5074065;28;20237;-79
2021/12/06 04:16:49;;;;;;;48.93;9.47;;;;;;;;;;5074430;28;20235;-78
2021/12/06 04:19:16;;;;;;;21.00;8.67;;;;;;;;;;5075064;28;20244;-79
2021/12/06 04:21:44;;;;;;;91.83;11.90;;;;;;;;;;5076515;28;20199;-79
2021/12/06 04:24:13;;;;;;;37.90;9.93;;;;;;;;;;5076739;28;20314;-80
2021/12/06 04:26:40;;;;;;;13.43;8.63;;;;;;;;;;5076574;28;20258;-79
2021/12/06 04:29:08;;;;;;;17.67;8.40;;;;;;;;;;5077648;28;20226;-78
2021/12/06 04:31:37;;;;;;;25.57;8.17;;;;;;;;;;5075790;28;20218;-78
2021/12/06 04:34:04;;;;;;;22.70;9.77;;;;;;;;;;5075709;28;20212;-79
2021/12/06 04:36:31;;;;;;;35.20;10.70;;;;;;;;;;5076813;28;20228;-78
2021/12/06 04:38:59;;;;;;;64.80;10.07;;;;;;;;;;5076481;28;20702;-79
2021/12/06 04:41:27;;;;;;;82.77;11.20;;;;;;;;;;5081231;28;20233;-80
2021/12/06 04:43:54;;;;;;;40.20;10.63;;;;;;;;;;5079297;28;20208;-78
2021/12/06 04:46:22;;;;;;;40.47;10.67;;;;;;;;;;5078072;28;20232;-78
2021/12/06 04:48:49;;;;;;;54.60;11.43;;;;;;;;;;5075440;28;20212;-79
2021/12/06 04:51:16;;;;;;;43.10;10.10;;;;;;;;;;5073905;28;20307;-79
2021/12/06 04:53:43;;;;;;;59.90;11.93;;;;;;;;;;5074672;28;20606;-78
2021/12/06 04:56:14;;;;;;;74.40;13.20;;;;;;;;;;5074296;28;20864;-78
2021/12/06 04:58:46;;;;;;;69.27;11.83;;;;;;;;;;5074762;28;20285;-78
2021/12/06 05:01:15;;;;;;;154.57;16.60;;;;;;;;;;5078679;28;20255;-78
2021/12/06 05:03:42;;;;;;;50.13;10.23;;;;;;;;;;5095826;28;20215;-78
2021/12/06 05:06:12;;;;;;;96.17;13.03;;;;;;;;;;5083972;28;20227;-78
2021/12/06 05:08:41;;;;;;;101.50;13.57;;;;;;;;;;5075406;28;20218;-78
2021/12/06 05:11:08;;;;;;;52.53;11.93;;;;;;;;;;5073821;28;20235;-78
2021/12/06 05:13:37;;;;;;;61.87;9.70;;;;;;;;;;5073564;28;20204;-78
2021/12/06 05:16:06;;;;;;;35.20;9.73;;;;;;;;;;5072044;28;20236;-79
2021/12/06 05:18:33;;;;;;;62.77;10.40;;;;;;;;;;5072514;28;20571;-79
2021/12/06 05:21:00;;;;;;;34.60;9.83;;;;;;;;;;5071923;28;20271;-78
2021/12/06 05:23:28;;;;;;;39.87;10.20;;;;;;;;;;5072401;28;20208;-78
2021/12/06 05:25:55;;;;;;;31.73;8.93;;;;;;;;;;5071801;28;20247;-78
2021/12/06 05:28:26;;;;;;;44.30;10.17;;;;;;;;;;5073365;28;20208;-79
2021/12/06 05:30:55;;;;;;;49.23;11.73;;;;;;;;;;5073492;28;20318;-78
2021/12/06 05:33:30;;;;;;;69.60;11.33;;;;;;;;;;5078186;28;20208;-79
2021/12/06 05:35:58;;;;;;;59.70;11.10;;;;;;;;;;5073890;28;20292;-79
2021/12/06 05:38:25;;;;;;;28.07;9.53;;;;;;;;;;5074066;28;20303;-79
2021/12/06 05:40:52;;;;;;;30.20;10.07;;;;;;;;;;5073913;28;20259;-79
2021/12/06 05:43:19;;;;;;;29.03;9.13;;;;;;;;;;5074264;28;20205;-79
2021/12/06 05:45:47;;;;;;;39.33;11.83;;;;;;;;;;5073705;28;20244;-80
2021/12/06 05:48:14;;;;;;;47.57;10.47;;;;;;;;;;5076606;28;20211;-79
2021/12/06 05:50:43;;;;;;;26.97;10.07;;;;;;;;;;5076789;28;20234;-79
2021/12/06 05:53:10;;;;;;;40.33;10.80;;;;;;;;;;5076439;28;20207;-79
2021/12/06 05:55:37;;;;;;;26.73;10.30;;;;;;;;;;5076544;28;20247;-79
2021/12/06 05:58:05;;;;;;;31.67;12.37;;;;;;;;;;5074720;28;20208;-79
2021/12/06 06:00:33;;;;;;;25.67;11.10;;;;;;;;;;5073787;28;20627;-79
2021/12/06 06:03:00;;;;;;;22.17;11.77;;;;;;;;;;5074345;28;20208;-79
2021/12/06 06:05:27;;;;;;;22.17;11.30;;;;;;;;;;5073312;28;20753;-79
2021/12/06 06:07:55;;;;;;;15.47;10.40;;;;;;;;;;5074587;28;20215;-79
2021/12/06 06:10:23;;;;;;;18.50;9.97;;;;;;;;;;5073386;28;20235;-79
2021/12/06 06:12:50;;;;;;;14.60;10.10;;;;;;;;;;5074907;28;20228;-79
2021/12/06 06:15:17;;;;;;;17.60;9.70;;;;;;;;;;5075572;28;20240;-79
2021/12/06 06:17:47;;;;;;;16.33;11.43;;;;;;;;;;5077912;28;20203;-79
2021/12/06 06:20:15;;;;;;;21.67;10.00;;;;;;;;;;5076973;28;20698;-79
2021/12/06 06:22:43;;;;;;;32.17;10.37;;;;;;;;;;5076452;28;20230;-79
2021/12/06 06:25:12;;;;;;;22.07;10.23;;;;;;;;;;5079472;28;20238;-79
2021/12/06 06:27:39;;;;;;;26.43;10.57;;;;;;;;;;5088607;23;20747;-76
2021/12/06 06:30:07;;;;;;;22.17;11.73;;;;;;;;;;5074404;28;20231;-77
2021/12/06 06:32:34;;;;;;;23.50;11.80;;;;;;;;;;5074386;28;20260;-75
2021/12/06 06:35:01;;;;;;;40.07;18.53;;;;;;;;;;5074184;28;20231;-74
2021/12/06 06:37:28;;;;;;;35.33;13.47;;;;;;;;;;5083584;28;20248;-74
2021/12/06 06:39:56;;;;;;;51.73;13.70;;;;;;;;;;5085749;28;20243;-75
2021/12/06 06:42:24;;;;;;;28.53;11.83;;;;;;;;;;5074280;28;20215;-75
2021/12/06 06:44:51;;;;;;;27.67;14.10;;;;;;;;;;5073621;28;20241;-75
2021/12/06 06:47:18;;;;;;;22.63;13.33;;;;;;;;;;5073889;28;20232;-75
2021/12/06 06:49:45;;;;;;;47.67;14.50;;;;;;;;;;5073981;28;20246;-74
2021/12/06 06:52:12;;;;;;;34.43;12.83;;;;;;;;;;5074223;28;20219;-75
2021/12/06 06:54:40;;;;;;;30.80;13.40;;;;;;;;;;5073456;28;20244;-75
2021/12/06 06:57:07;;;;;;;25.63;11.63;;;;;;;;;;5073841;28;20241;-75
2021/12/06 06:59:35;;;;;;;18.10;10.20;;;;;;;;;;5073480;28;20232;-75
2021/12/06 07:02:02;;;;;;;35.20;11.57;;;;;;;;;;5074265;28;20233;-75
2021/12/06 07:04:30;;;;;;;30.23;11.97;;;;;;;;;;5078374;28;20234;-75
2021/12/06 07:06:57;;;;;;;31.80;12.13;;;;;;;;;;5091557;28;20223;-75
2021/12/06 07:09:25;;;;;;;30.80;12.10;;;;;;;;;;5089353;28;20247;-75
2021/12/06 07:11:52;;;;;;;22.80;11.57;;;;;;;;;;5074088;28;20200;-75
2021/12/06 07:14:19;;;;;;;29.10;10.57;;;;;;;;;;5072176;28;20701;-75
2021/12/06 07:16:48;;;;;;;39.27;12.43;;;;;;;;;;5073767;28;20224;-75
2021/12/06 07:19:16;;;;;;;16.40;11.33;;;;;;;;;;5053585;28;20240;-75
2021/12/06 07:21:43;;;;;;;31.37;12.90;;;;;;;;;;5053731;28;20229;-76
2021/12/06 07:24:10;;;;;;;26.63;12.30;;;;;;;;;;5053441;28;20572;-75
2021/12/06 07:26:38;;;;;;;26.27;12.83;;;;;;;;;;5052059;28;20205;-75
2021/12/06 07:29:05;;;;;;;23.37;12.37;;;;;;;;;;5053315;28;20551;-75
2021/12/06 07:31:32;;;;;;;17.60;11.93;;;;;;;;;;5053358;28;20254;-75
2021/12/06 07:34:00;;;;;;;22.53;12.53;;;;;;;;;;5053204;28;20214;-75
2021/12/06 07:36:29;;;;;;;29.47;13.90;;;;;;;;;;5053118;28;20204;-75
2021/12/06 07:38:56;;;;;;;22.87;13.07;;;;;;;;;;5053128;28;20564;-76
2021/12/06 07:41:24;;;;;;;21.53;12.43;;;;;;;;;;5053127;28;20710;-75
2021/12/06 07:43:51;;;;;;;19.33;12.53;;;;;;;;;;5053468;28;20216;-75
2021/12/06 07:46:18;;;;;;;25.30;13.77;;;;;;;;;;5072543;28;20241;-77
2021/12/06 07:48:45;;;;;;;25.53;13.23;;;;;;;;;;5073313;28;20258;-76
2021/12/06 07:51:14;;;;;;;22.67;13.80;;;;;;;;;;5053629;28;20245;-76
2021/12/06 07:53:42;;;;;;;19.20;12.90;;;;;;;;;;5053053;28;20219;-76
2021/12/06 07:56:11;;;;;;;22.27;13.37;;;;;;;;;;5051974;28;20260;-76
2021/12/06 07:58:38;;;;;;;16.07;11.43;;;;;;;;;;5053797;28;20241;-76
2021/12/06 08:01:05;;;;;;;21.53;12.27;;;;;;;;;;5065147;28;20236;-76
2021/12/06 08:03:33;;;;;;;20.80;14.10;;;;;;;;;;5067774;28;20216;-75
2021/12/06 08:06:01;;;;;;;23.80;13.97;;;;;;;;;;5072389;28;20725;-77
2021/12/06 08:08:31;;;;;;;21.67;14.27;;;;;;;;;;5072926;28;20303;-76
2021/12/06 08:10:59;;;;;;;22.87;13.17;;;;;;;;;;5072624;28;20228;-75
2021/12/06 08:13:28;;;;;;;20.37;12.47;;;;;;;;;;5070808;28;20213;-75
2021/12/06 08:15:56;;;;;;;20.30;13.30;;;;;;;;;;5072032;28;20281;-77
2021/12/06 08:18:23;;;;;;;21.97;13.43;;;;;;;;;;5073036;28;20224;-78
2021/12/06 08:20:50;;;;;;;27.07;14.43;;;;;;;;;;5072171;28;20289;-74
2021/12/06 08:23:18;;;;;;;20.97;13.30;;;;;;;;;;5073160;28;20208;-74
2021/12/06 08:25:48;;;;;;;25.33;14.57;;;;;;;;;;5072284;28;20240;-76
2021/12/06 08:28:15;;;;;;;27.10;12.67;;;;;;;;;;5072012;28;20243;-76
2021/12/06 08:30:43;;;;;;;22.80;13.13;;;;;;;;;;5072209;28;20251;-76
2021/12/06 08:33:10;;;;;;;19.87;12.43;;;;;;;;;;5072335;28;20216;-77
2021/12/06 08:35:38;;;;;;;21.10;13.43;;;;;;;;;;5072142;28;20248;-76
2021/12/06 08:38:06;;;;;;;21.30;13.70;;;;;;;;;;5072603;28;20232;-77
2021/12/06 08:40:33;;;;;;;18.50;13.33;;;;;;;;;;5072144;28;20244;-77
2021/12/06 08:43:02;;;;;;;21.30;13.43;;;;;;;;;;5072631;28;20219;-78
2021/12/06 08:45:30;;;;;;;16.67;11.90;;;;;;;;;;5071539;28;20660;-75
2021/12/06 08:47:58;;;;;;;18.70;13.10;;;;;;;;;;5071871;28;20590;-76
2021/12/06 08:50:25;;;;;;;22.37;14.67;;;;;;;;;;5071452;28;20232;-77
2021/12/06 08:52:53;;;;;;;20.80;13.53;;;;;;;;;;5072095;28;20562;-74
2021/12/06 08:55:21;;;;;;;26.63;14.77;;;;;;;;;;5071114;28;20290;-75
2021/12/06 08:57:50;;;;;;;26.07;14.97;;;;;;;;;;5071481;28;20236;-76
2021/12/06 09:00:20;;;;;;;23.40;15.03;;;;;;;;;;5071504;28;20746;-76
2021/12/06 09:02:47;;;;;;;23.80;15.17;;;;;;;;;;5072242;28;20289;-77
2021/12/06 09:05:15;;;;;;;23.17;13.93;;;;;;;;;;5071059;28;20294;-77
2021/12/06 09:07:42;;;;;;;20.10;14.70;;;;;;;;;;5062989;28;20254;-76
2021/12/06 09:10:12;;;;;;;21.40;14.00;;;;;;;;;;5070626;28;20233;-75
2021/12/06 09:12:39;;;;;;;21.47;12.97;;;;;;;;;;5071962;28;20270;-76
2021/12/06 09:15:08;;;;;;;20.43;13.13;;;;;;;;;;5071147;28;20237;-76
2021/12/06 09:17:37;;;;;;;18.93;13.17;;;;;;;;;;5070950;28;20236;-75
2021/12/06 09:20:06;;;;;;;21.10;13.10;;;;;;;;;;5071385;28;20266;-75
2021/12/06 09:22:33;;;;;;;18.00;12.77;;;;;;;;;;5071395;28;20640;-76
2021/12/06 09:25:00;;;;;;;21.00;14.30;;;;;;;;;;5070838;28;20240;-75
2021/12/06 09:27:27;;;;;;;20.83;13.27;;;;;;;;;;5070580;28;20302;-76
2021/12/06 09:29:55;;;;;;;20.93;13.03;;;;;;;;;;5071241;28;20260;-75
2021/12/06 09:32:23;;;;;;;19.67;12.10;;;;;;;;;;5071569;28;20300;-75
2021/12/06 09:34:56;;;;;;;20.20;11.97;;;;;;;;;;5070901;28;20233;-76
2021/12/06 09:37:23;;;;;;;19.73;11.07;;;;;;;;;;5070753;28;20799;-76
2021/12/06 09:39:50;;;;;;;18.93;12.57;;;;;;;;;;5070880;28;20241;-75
2021/12/06 09:42:19;;;;;;;23.77;12.73;;;;;;;;;;5071118;28;20704;-76
2021/12/06 09:44:46;;;;;;;17.20;11.97;;;;;;;;;;5070895;28;20270;-75
2021/12/06 09:47:14;;;;;;;20.27;12.90;;;;;;;;;;5070681;28;20248;-75
2021/12/06 09:49:41;;;;;;;24.10;13.60;;;;;;;;;;5068199;28;20245;-75
2021/12/06 09:52:11;;;;;;;21.27;13.63;;;;;;;;;;5062627;28;20201;-75
2021/12/06 09:54:40;;;;;;;23.27;13.87;;;;;;;;;;5070616;28;20264;-76
2021/12/06 09:57:08;;;;;;;23.73;14.53;;;;;;;;;;5070501;28;20248;-75
2021/12/06 09:59:38;;;;;;;24.73;14.03;;;;;;;;;;5070714;28;20241;-75
2021/12/06 10:02:07;;;;;;;28.40;13.93;;;;;;;;;;5071032;28;20543;-75
2021/12/06 10:04:36;;;;;;;21.90;13.47;;;;;;;;;;5070187;28;20239;-76
2021/12/06 10:07:06;;;;;;;25.27;14.47;;;;;;;;;;5070622;28;20274;-76
2021/12/06 10:09:35;;;;;;;27.40;14.70;;;;;;;;;;5070433;28;20255;-76
2021/12/06 10:12:02;;;;;;;23.03;13.90;;;;;;;;;;5071185;28;20212;-76
2021/12/06 10:14:29;;;;;;;29.40;14.33;;;;;;;;;;5070284;28;20291;-76
2021/12/06 10:16:57;;;;;;;31.30;13.93;;;;;;;;;;5071410;28;20221;-76
2021/12/06 10:19:25;;;;;;;24.43;15.03;;;;;;;;;;5071885;28;20240;-75
2021/12/06 10:21:52;;;;;;;29.33;16.53;;;;;;;;;;5071851;28;20236;-75
2021/12/06 10:24:23;;;;;;;31.17;15.50;;;;;;;;;;5071001;28;20320;-75
2021/12/06 10:26:53;;;;;;;30.60;16.03;;;;;;;;;;5070816;28;20294;-75
2021/12/06 10:29:22;;;;;;;28.17;15.27;;;;;;;;;;5070331;28;20240;-76
2021/12/06 10:31:51;;;;;;;29.87;15.83;;;;;;;;;;5071974;28;20205;-75
2021/12/06 10:34:20;;;;;;;31.97;16.77;;;;;;;;;;5070717;28;20237;-76
2021/12/06 10:36:47;;;;;;;29.80;15.63;;;;;;;;;;5070989;28;20237;-75
2021/12/06 10:39:14;;;;;;;35.70;16.60;;;;;;;;;;5070292;28;20241;-76
2021/12/06 10:41:42;;;;;;;32.37;16.10;;;;;;;;;;5071123;28;20221;-75
2021/12/06 10:44:11;;;;;;;34.03;16.63;;;;;;;;;;5069381;28;20248;-75
2021/12/06 10:46:40;;;;;;;29.47;16.83;;;;;;;;;;5070480;28;20247;-76
2021/12/06 10:49:08;;;;;;;29.43;16.10;;;;;;;;;;5070494;28;20304;-76
2021/12/06 10:51:36;;;;;;;31.17;16.10;;;;;;;;;;5066115;28;20198;-76
2021/12/06 10:54:05;;;;;;;31.83;18.43;;;;;;;;;;5068711;28;20702;-76
2021/12/06 10:56:39;;;;;;;32.13;17.53;;;;;;;;;;5069982;28;20233;-76
2021/12/06 10:59:08;;;;;;;31.43;17.73;;;;;;;;;;5069982;28;20216;-76
2021/12/06 11:01:36;;;;;;;30.37;15.97;;;;;;;;;;5061762;28;20316;-76
2021/12/06 11:04:05;;;;;;;35.80;17.30;;;;;;;;;;5053613;28;20210;-76
2021/12/06 11:06:35;;;;;;;25.13;15.13;;;;;;;;;;5053414;28;20215;-77
2021/12/06 11:09:05;;;;;;;30.83;16.43;;;;;;;;;;5053617;28;20235;-76
2021/12/06 11:11:35;;;;;;;31.93;17.40;;;;;;;;;;5054985;28;20233;-77
2021/12/06 11:14:03;;;;;;;30.57;16.97;;;;;;;;;;5071856;28;20546;-76
2021/12/06 11:16:32;;;;;;;28.43;16.57;;;;;;;;;;5073251;28;20209;-76
2021/12/06 11:19:03;;;;;;;29.30;16.43;;;;;;;;;;5073163;28;20245;-76
2021/12/06 11:21:33;;;;;;;27.97;16.97;;;;;;;;;;5074041;28;20712;-77
2021/12/06 11:24:14;;;;;;;27.90;17.27;;;;;;;;;;5073275;28;20213;-76
2021/12/06 11:26:42;;;;;;;26.33;16.20;;;;;;;;;;5073151;28;20546;-77
2021/12/06 11:29:11;;;;;;;26.23;15.57;;;;;;;;;;5073219;28;20623;-76
2021/12/06 11:31:39;;;;;;;23.87;15.13;;;;;;;;;;5073836;28;20208;-77
2021/12/06 11:34:08;;;;;;;26.90;15.57;;;;;;;;;;5073640;28;20622;-77
2021/12/06 11:36:36;;;;;;;20.63;14.63;;;;;;;;;;5072914;28;20205;-76
2021/12/06 11:39:05;;;;;;;21.83;14.53;;;;;;;;;;5073006;28;20205;-76
2021/12/06 11:41:33;;;;;;;19.43;13.03;;;;;;;;;;5073613;28;20209;-76
2021/12/06 11:44:00;;;;;;;18.57;12.63;;;;;;;;;;5073160;28;20214;-76
2021/12/06 11:46:28;;;;;;;17.47;12.13;;;;;;;;;;5072191;28;20618;-76
2021/12/06 11:48:55;;;;;;;19.10;12.43;;;;;;;;;;5055585;28;20305;-76
2021/12/06 11:51:24;;;;;;;21.17;13.13;;;;;;;;;;5053314;28;20218;-76
2021/12/06 11:53:54;;;;;;;20.20;13.37;;;;;;;;;;5053609;28;20209;-77
2021/12/06 11:56:23;;;;;;;18.90;13.83;;;;;;;;;;5052481;28;20231;-77
2021/12/06 11:58:52;;;;;;;18.23;13.00;;;;;;;;;;5053034;28;20673;-76
2021/12/06 12:01:21;;;;;;;16.63;12.13;;;;;;;;;;5052774;28;20264;-76
2021/12/06 12:03:50;;;;;;;17.80;11.87;;;;;;;;;;5053484;28;20209;-76
2021/12/06 12:06:26;;;;;;;15.03;11.50;;;;;;;;;;5052014;28;20261;-76
2021/12/06 12:09:02;;;;;;;19.40;10.93;;;;;;;;;;5053309;28;20199;-76
2021/12/06 12:11:29;;;;;;;14.43;10.63;;;;;;;;;;5066859;28;20234;-77
2021/12/06 12:13:58;;;;;;;11.57;8.80;;;;;;;;;;5072564;28;20214;-76
2021/12/06 12:16:25;;;;;;;13.33;9.33;;;;;;;;;;5072654;28;20205;-76
2021/12/06 12:18:52;;;;;;;11.70;8.03;;;;;;;;;;5072656;28;20733;-76
2021/12/06 12:21:19;;;;;;;10.50;7.53;;;;;;;;;;5072383;28;20242;-76
2021/12/06 12:23:48;;;;;;;14.53;9.33;;;;;;;;;;5070757;28;20232;-76
2021/12/06 12:26:19;;;;;;;12.43;7.93;;;;;;;;;;5059921;28;20260;-76
2021/12/06 12:28:52;;;;;;;11.73;8.30;;;;;;;;;;5052830;28;20250;-77
2021/12/06 12:31:20;;;;;;;11.50;8.77;;;;;;;;;;5061472;28;20709;-77
2021/12/06 12:33:48;;;;;;;15.20;8.97;;;;;;;;;;5068928;28;20201;-77
2021/12/06 12:36:17;;;;;;;16.13;8.73;;;;;;;;;;5071540;28;20241;-77
2021/12/06 12:38:46;;;;;;;12.00;7.90;;;;;;;;;;5072188;28;20232;-77
2021/12/06 12:41:16;;;;;;;10.60;7.97;;;;;;;;;;5072065;28;20270;-77
2021/12/06 12:43:44;;;;;;;10.23;8.00;;;;;;;;;;5072142;28;20641;-78
2021/12/06 12:46:13;;;;;;;12.30;9.00;;;;;;;;;;5071551;28;20239;-77
2021/12/06 12:48:48;;;;;;;10.40;7.90;;;;;;;;;;5071550;28;20234;-77
2021/12/06 12:51:16;;;;;;;13.27;8.30;;;;;;;;;;5071612;28;20247;-77
2021/12/06 12:53:48;;;;;;;12.13;9.67;;;;;;;;;;5072188;28;20211;-77
2021/12/06 12:56:20;;;;;;;12.53;9.60;;;;;;;;;;5071242;28;20309;-77
2021/12/06 12:58:48;;;;;;;12.87;8.67;;;;;;;;;;5071773;28;20211;-77
2021/12/06 13:01:15;;;;;;;9.47;7.83;;;;;;;;;;5064936;28;20868;-77
2021/12/06 13:03:43;;;;;;;15.17;9.50;;;;;;;;;;5052369;28;20244;-77
2021/12/06 13:06:15;;;;;;;19.60;12.27;;;;;;;;;;5060148;28;20257;-77
2021/12/06 13:08:42;;;;;;;20.53;11.23;;;;;;;;;;5066852;28;20225;-75
2021/12/06 13:11:09;;;;;;;20.90;13.47;;;;;;;;;;5071141;28;20236;-75
2021/12/06 13:13:42;;;;;;;21.50;12.87;;;;;;;;;;5067705;28;20208;-75
2021/12/06 13:16:28;;;;;;;18.57;12.30;;;;;;;;;;5060087;28;20230;-75
2021/12/06 13:19:08;;;;;;;17.70;12.63;;;;;;;;;;5068080;28;20607;-75
2021/12/06 13:21:41;;;;;;;23.73;13.40;;;;;;;;;;5071567;28;20216;-76
2021/12/06 13:24:27;;;;;;;20.77;13.67;;;;;;;;;;5071011;28;20228;-76
2021/12/06 13:26:55;;;;;;;27.23;14.53;;;;;;;;;;5066927;28;20230;-76
2021/12/06 13:29:26;;;;;;;24.17;15.67;;;;;;;;;;5062388;28;20233;-77
2021/12/06 13:31:54;;;;;;;26.30;15.33;;;;;;;;;;5072539;28;20588;-76
2021/12/06 13:34:22;;;;;;;24.57;15.83;;;;;;;;;;5071318;28;20731;-76
2021/12/06 13:36:50;;;;;;;22.67;14.17;;;;;;;;;;5071776;28;20256;-77
2021/12/06 13:39:32;;;;;;;26.33;14.17;;;;;;;;;;5070735;28;20268;-77
2021/12/06 13:42:01;;;;;;;20.93;13.27;;;;;;;;;;5072299;28;20301;-78
2021/12/06 13:44:40;;;;;;;24.63;14.70;;;;;;;;;;5070965;28;20322;-75
2021/12/06 13:47:11;;;;;;;24.90;15.43;;;;;;;;;;5066034;28;20231;-76
2021/12/06 13:49:51;;;;;;;27.27;17.23;;;;;;;;;;5057008;28;20269;-77
2021/12/06 13:52:29;;;;;;;25.93;12.20;;;;;;;;;;5061563;28;20213;-77
2021/12/06 13:54:56;;;;;;;31.83;17.40;;;;;;;;;;5068634;28;20232;-77
2021/12/06 13:57:23;;;;;;;31.17;17.67;;;;;;;;;;5068763;28;20236;-77
2021/12/06 13:59:57;;;;;;;25.93;16.17;;;;;;;;;;5055300;28;20240;-77
2021/12/06 14:02:27;;;;;;;27.27;16.03;;;;;;;;;;5067884;28;20227;-76
2021/12/06 14:04:54;;;;;;;28.63;16.53;;;;;;;;;;5070725;28;20246;-77
2021/12/06 14:07:23;;;;;;;27.17;16.67;;;;;;;;;;5070631;28;20624;-77
2021/12/06 14:09:50;;;;;;;29.83;16.80;;;;;;;;;;5070756;28;20246;-77
2021/12/06 14:12:19;;;;;;;27.50;16.97;;;;;;;;;;5071460;28;20205;-77
2021/12/06 14:14:49;;;;;;;26.40;16.40;;;;;;;;;;5071005;28;20244;-77
2021/12/06 14:17:18;;;;;;;27.33;15.80;;;;;;;;;;5070826;28;20599;-77
2021/12/06 14:19:47;;;;;;;31.17;17.20;;;;;;;;;;5070552;28;20791;-75
2021/12/06 14:22:17;;;;;;;28.90;16.10;;;;;;;;;;5071043;28;20584;-75
2021/12/06 14:24:45;;;;;;;35.67;18.77;;;;;;;;;;5070559;28;20310;-77
2021/12/06 14:27:13;;;;;;;32.20;17.87;;;;;;;;;;5070455;28;20239;-77
2021/12/06 14:29:40;;;;;;;30.33;16.73;;;;;;;;;;5070515;28;20243;-77
2021/12/06 14:32:09;;;;;;;26.97;16.77;;;;;;;;;;5062612;28;20237;-77
2021/12/06 14:34:40;;;;;;;26.40;17.40;;;;;;;;;;5058423;28;20306;-77
2021/12/06 14:37:08;;;;;;;30.40;16.90;;;;;;;;;;5073119;28;20252;-77
2021/12/06 14:39:36;;;;;;;29.70;16.83;;;;;;;;;;5074227;28;20243;-77